Hurdle Mills, North Carolina
Current Conditions -  °F | °C
As of 11:15 PM on Friday 19 Dec 2014 (Local Time) from KTDF Reporting Station
Clear Clear  
Wind Chill: 32°   Ceiling: Unl
Heat Index: 32°   Visibility: 10mi
Dew Point: 30°   Wind: 0mph
Humidity: 93%   Direction: NA
Pressure: 30.22"   Gusts: NA
Location:  36.27°N, 79.05°W
Report Text: KTDF 200415Z AUTO 00000KT 10SM CLR 00/M01 A3022 RMK AO2
Loading
Personal Weather Stations






























Interactive Weather Map New forecast layout! Learn more

10-Day Weather Forecast

Advertisements
Track Severe Weather on mobile